createdAt,value
2023-09-29T00:02:15.039Z,25.30
2023-09-29T00:07:17.482Z,23.10
2023-09-29T00:12:20.209Z,23.60
2023-09-29T00:17:22.126Z,24.60
2023-09-29T00:22:24.085Z,22.30
2023-09-29T00:27:26.164Z,23.90
2023-09-29T00:32:28.125Z,22.50
2023-09-29T00:37:30.520Z,20.90
2023-09-29T00:42:33.204Z,21.20
2023-09-29T00:47:37.525Z,21.30
2023-09-29T00:52:41.886Z,19.60
2023-09-29T00:57:49.275Z,19.80
2023-09-29T01:02:51.545Z,19.40
2023-09-29T01:07:53.833Z,18.90
2023-09-29T01:12:55.785Z,19.30
2023-09-29T01:17:57.851Z,18.30
2023-09-29T01:23:02.396Z,19.90
2023-09-29T01:28:06.656Z,19.20
2023-09-29T01:33:09.615Z,21.80
2023-09-29T01:38:11.548Z,20.20
2023-09-29T01:43:13.403Z,18.40
2023-09-29T01:48:15.393Z,17.90
2023-09-29T01:53:18.049Z,20.60
2023-09-29T01:58:21.456Z,18.90
2023-09-29T02:03:23.718Z,21.30
2023-09-29T02:08:27.038Z,18.00
2023-09-29T02:13:28.949Z,18.00
2023-09-29T02:18:31.102Z,18.90
2023-09-29T02:23:34.971Z,18.80
2023-09-29T02:28:37.534Z,17.40
2023-09-29T02:33:41.975Z,16.60
2023-09-29T02:38:43.901Z,18.80
2023-09-29T02:43:45.813Z,18.30
2023-09-29T02:48:48.273Z,21.00
2023-09-29T02:53:51.606Z,16.70
2023-09-29T02:58:56.003Z,17.40
2023-09-29T03:04:00.239Z,17.30
2023-09-29T03:09:03.021Z,17.10
2023-09-29T03:14:05.627Z,18.60
2023-09-29T03:19:09.610Z,20.90
2023-09-29T03:24:11.546Z,17.40
2023-09-29T03:29:13.455Z,16.50
2023-09-29T03:34:15.754Z,18.00
2023-09-29T03:39:19.669Z,18.20
2023-09-29T03:44:22.575Z,19.20
2023-09-29T03:49:24.677Z,21.90
2023-09-29T03:54:27.038Z,19.20
2023-09-29T03:59:29.036Z,18.30
2023-09-29T04:04:32.172Z,18.20
2023-09-29T04:09:34.439Z,19.80
2023-09-29T04:14:36.409Z,20.20
2023-09-29T04:19:39.664Z,18.70
2023-09-29T04:24:41.571Z,18.70
2023-09-29T04:29:43.505Z,18.50
2023-09-29T04:34:46.447Z,18.20
2023-09-29T04:39:48.428Z,17.80
2023-09-29T04:44:50.323Z,20.40
2023-09-29T04:49:52.250Z,21.90
2023-09-29T04:54:54.592Z,20.40
2023-09-29T04:59:56.616Z,19.80
2023-09-29T05:04:58.501Z,21.80
2023-09-29T05:10:00.639Z,18.50
2023-09-29T05:15:03.282Z,21.80
2023-09-29T05:20:06.626Z,26.90
2023-09-29T05:25:09.745Z,32.70
2023-09-29T05:30:13.607Z,45.70
2023-09-29T05:35:15.560Z,55.00
2023-09-29T05:40:17.690Z,54.90
2023-09-29T05:45:21.242Z,58.40
2023-09-29T05:50:23.150Z,54.20
2023-09-29T05:55:25.320Z,48.00
2023-09-29T06:00:27.731Z,34.30
2023-09-29T06:05:31.037Z,29.80
2023-09-29T06:10:33.176Z,26.10
2023-09-29T06:15:35.040Z,24.40
2023-09-29T06:20:36.927Z,24.40
2023-09-29T06:25:38.901Z,19.50
2023-09-29T06:30:40.907Z,19.10
2023-09-29T06:35:43.339Z,14.70
2023-09-29T06:40:45.395Z,17.40
2023-09-29T06:50:52.455Z,14.80
2023-09-29T06:55:55.495Z,14.20
2023-09-29T07:01:02.074Z,13.30
2023-09-29T07:06:04.674Z,12.20
2023-09-29T07:11:06.736Z,12.50
2023-09-29T07:16:09.110Z,11.80
2023-09-29T07:21:11.009Z,12.20
2023-09-29T07:26:13.373Z,13.10
2023-09-29T07:31:15.330Z,12.60
2023-09-29T07:36:17.523Z,12.10
2023-09-29T07:41:19.512Z,10.40
2023-09-29T07:46:21.587Z,12.90
2023-09-29T07:51:26.198Z,10.10
2023-09-29T07:56:28.221Z,12.90
2023-09-29T08:01:30.490Z,12.00
2023-09-29T08:06:32.306Z,10.00
2023-09-29T08:11:34.668Z,12.20
2023-09-29T08:16:37.489Z,11.20
2023-09-29T08:21:40.384Z,9.40
2023-09-29T08:26:42.879Z,11.40
2023-09-29T08:31:45.150Z,12.30
2023-09-29T08:36:47.255Z,8.70
2023-09-29T08:41:57.405Z,13.40
2023-09-29T08:47:02.499Z,9.70
2023-09-29T08:52:05.685Z,9.30
2023-09-29T08:57:08.976Z,9.70
2023-09-29T09:02:11.257Z,7.80
2023-09-29T09:07:14.247Z,14.50
2023-09-29T09:12:18.409Z,10.10
2023-09-29T09:17:20.574Z,8.10
2023-09-29T09:22:38.708Z,9.30
2023-09-29T09:27:42.729Z,7.60
2023-09-29T09:32:44.949Z,10.30
2023-09-29T09:37:52.578Z,7.90
2023-09-29T09:42:55.320Z,8.50
2023-09-29T09:48:01.036Z,10.50
2023-09-29T09:53:09.213Z,7.60
2023-09-29T09:58:14.644Z,11.10
2023-09-29T10:03:18.242Z,13.10
2023-09-29T10:08:32.439Z,8.70
2023-09-29T10:13:39.371Z,7.10
2023-09-29T10:18:42.039Z,10.20
2023-09-29T10:23:51.867Z,9.90
2023-09-29T10:29:02.299Z,8.30
2023-09-29T10:34:04.470Z,8.30
2023-09-29T10:39:06.491Z,6.90
2023-09-29T10:44:08.652Z,10.80
2023-09-29T10:49:11.323Z,8.60
2023-09-29T10:54:13.582Z,9.40
2023-09-29T10:59:15.444Z,8.70
2023-09-29T11:04:17.589Z,8.50
2023-09-29T11:09:29.829Z,9.00
2023-09-29T11:14:39.830Z,12.10
2023-09-29T11:19:55.781Z,7.20
2023-09-29T11:24:58.326Z,7.50
2023-09-29T11:30:02.332Z,6.50
2023-09-29T11:35:04.410Z,10.20
2023-09-29T11:40:12.803Z,8.60
2023-09-29T11:45:14.945Z,7.10
2023-09-29T11:50:16.926Z,7.50
2023-09-29T11:55:18.890Z,7.10
2023-09-29T12:00:20.752Z,6.90
2023-09-29T12:05:22.805Z,9.90
2023-09-29T12:10:24.721Z,11.10
2023-09-29T12:15:27.188Z,12.50
2023-09-29T12:20:29.821Z,9.50
2023-09-29T12:25:32.510Z,10.30
2023-09-29T12:30:34.737Z,7.30
2023-09-29T12:35:36.629Z,6.90
2023-09-29T12:40:38.572Z,9.30
2023-09-29T12:45:40.391Z,10.30
2023-09-29T12:50:42.636Z,7.20
2023-09-29T12:55:44.677Z,12.30
2023-09-29T13:00:46.740Z,9.40
2023-09-29T13:05:49.162Z,7.00
2023-09-29T13:10:51.382Z,9.30
2023-09-29T13:15:53.846Z,8.80
2023-09-29T13:20:56.479Z,8.40
2023-09-29T13:25:58.565Z,7.40
2023-09-29T13:31:02.786Z,7.90
2023-09-29T13:36:05.172Z,11.50
2023-09-29T13:41:07.337Z,7.30
2023-09-29T13:46:09.689Z,6.70
2023-09-29T13:51:12.036Z,7.40
2023-09-29T13:56:14.793Z,6.30
2023-09-29T14:01:22.915Z,6.90
2023-09-29T14:06:25.136Z,9.50
2023-09-29T14:11:27.451Z,11.30
2023-09-29T14:16:30.124Z,6.80
2023-09-29T14:21:32.119Z,10.40
2023-09-29T14:26:34.659Z,6.40
2023-09-29T14:31:36.656Z,7.00
2023-09-29T14:36:38.498Z,6.50
2023-09-29T14:41:40.391Z,8.80
2023-09-29T14:46:42.821Z,9.70
2023-09-29T14:51:44.639Z,7.30
2023-09-29T14:56:46.469Z,9.00
2023-09-29T15:01:48.936Z,7.10
2023-09-29T15:06:50.878Z,8.20
2023-09-29T15:11:52.869Z,8.50
2023-09-29T15:16:54.838Z,8.00
2023-09-29T15:21:57.448Z,7.80
2023-09-29T15:27:05.133Z,7.60
2023-09-29T15:32:20.707Z,7.90
2023-09-29T15:37:22.650Z,7.60
2023-09-29T15:42:25.351Z,6.30
2023-09-29T15:47:27.405Z,8.30
2023-09-29T15:52:29.378Z,8.70
2023-09-29T15:57:31.542Z,6.90
2023-09-29T16:02:33.400Z,7.00
2023-09-29T16:07:35.895Z,8.80
2023-09-29T16:12:37.747Z,8.90
2023-09-29T16:17:40.114Z,7.90
2023-09-29T16:22:41.969Z,10.50
2023-09-29T16:27:43.890Z,5.80
2023-09-29T16:32:45.855Z,10.40
2023-09-29T16:37:47.756Z,6.20
2023-09-29T16:42:49.551Z,8.10
2023-09-29T16:47:52.019Z,8.10
2023-09-29T16:52:53.896Z,7.30
2023-09-29T16:57:56.047Z,10.20
2023-09-29T17:02:58.087Z,14.40
2023-09-29T17:08:01.733Z,11.60
2023-09-29T17:13:04.784Z,10.40
2023-09-29T17:18:07.028Z,11.70
2023-09-29T17:23:10.028Z,16.30
2023-09-29T17:28:14.570Z,12.10
2023-09-29T17:33:17.711Z,9.50
2023-09-29T17:38:19.765Z,9.30
2023-09-29T17:43:21.691Z,13.40
2023-09-29T17:48:40.884Z,10.10
2023-09-29T17:53:46.370Z,11.20
2023-09-29T17:58:48.764Z,12.40
2023-09-29T18:03:50.724Z,11.20
2023-09-29T18:08:53.043Z,13.30
2023-09-29T18:13:58.116Z,11.00
2023-09-29T18:19:01.804Z,13.40
2023-09-29T18:24:06.817Z,9.70
2023-09-29T18:29:10.292Z,10.90
2023-09-29T18:34:12.992Z,13.50
2023-09-29T18:39:15.839Z,11.10
2023-09-29T18:44:18.083Z,10.90
2023-09-29T18:49:20.099Z,11.40
2023-09-29T18:54:24.668Z,16.50
2023-09-29T18:59:30.352Z,16.30
2023-09-29T19:04:35.595Z,11.80
2023-09-29T19:09:39.316Z,13.30
2023-09-29T19:14:41.409Z,10.90
2023-09-29T19:19:43.426Z,9.50
2023-09-29T19:24:46.503Z,11.20
2023-09-29T19:29:50.635Z,10.00
2023-09-29T19:34:53.016Z,11.70
2023-09-29T19:39:54.879Z,11.00
2023-09-29T19:44:57.419Z,12.70
2023-09-29T19:50:01.205Z,17.20
2023-09-29T19:55:04.559Z,16.10
2023-09-29T20:00:07.116Z,15.70
2023-09-29T20:05:17.850Z,11.80
2023-09-29T20:10:20.154Z,14.10
2023-09-29T20:15:22.002Z,13.60
2023-09-29T20:20:23.949Z,11.60
2023-09-29T20:25:26.247Z,14.80
2023-09-29T20:30:28.507Z,14.40
2023-09-29T20:35:31.562Z,14.40
2023-09-29T20:40:33.450Z,15.40
2023-09-29T20:45:35.942Z,13.50
2023-09-29T20:50:39.112Z,14.20
2023-09-29T20:55:41.048Z,14.20
2023-09-29T21:00:43.100Z,17.40
2023-09-29T21:05:45.098Z,16.60
2023-09-29T21:11:01.631Z,17.30
2023-09-29T21:16:07.586Z,15.40
2023-09-29T21:21:09.567Z,16.60
2023-09-29T21:26:15.874Z,16.80
2023-09-29T21:31:22.663Z,16.50
2023-09-29T21:36:24.780Z,15.30
2023-09-29T21:41:26.602Z,17.40
2023-09-29T21:46:34.447Z,17.60
2023-09-29T21:51:40.391Z,15.70
2023-09-29T21:56:42.620Z,17.50
2023-09-29T22:01:44.672Z,16.70
2023-09-29T22:06:46.544Z,18.10
2023-09-29T22:11:48.607Z,20.80
2023-09-29T22:16:50.527Z,16.80
2023-09-29T22:21:56.132Z,17.90
2023-09-29T22:26:58.070Z,17.70
2023-09-29T22:32:00.702Z,17.50
2023-09-29T22:37:02.617Z,19.60
2023-09-29T22:42:04.508Z,20.80
2023-09-29T22:47:06.756Z,16.90
2023-09-29T22:52:08.642Z,14.80
2023-09-29T22:57:10.550Z,16.80
2023-09-29T23:02:12.749Z,14.00
2023-09-29T23:07:14.712Z,14.40
2023-09-29T23:12:19.647Z,12.50
2023-09-29T23:17:21.724Z,15.10
2023-09-29T23:22:23.725Z,16.60
2023-09-29T23:27:25.683Z,15.60
2023-09-29T23:32:29.098Z,14.20
2023-09-29T23:37:31.411Z,17.00
2023-09-29T23:42:33.773Z,14.30
2023-09-29T23:47:36.347Z,17.00
2023-09-29T23:52:38.907Z,15.00
2023-09-29T23:57:41.160Z,12.00
